Stolt Dipper — ZCMY3 — position and weather

sailwx.info

Track history (hours):
 
Tides and Currents Weather Stations Pressure Air Temp Water Temp Dewpoint Dewpoint Depression Visibility Wind Speed Wind Dir Waves Ship Positions

Stolt Dipper

Last reported at 2014-Nov-01 02:33 UTC. Time now 2014-Nov-01 03:18 UTC.
Position N 49°29' E 000°08'.

Length 96 m; draft 6.3 m.

Type: Ship (hazmat cat B). MMSI: 319036000.

Date/timePositionNaut miles runAvg speedWind from/ knotsBaromVisibWave heightAir tempDewpointWater temp
2014-Nov-01 02:33N 49°29' E 000°08'0 0.0
2014-Nov-01 01:30N 49°29' E 000°08'0 0.0
2014-Nov-01 00:33N 49°29' E 000°08'0 0.0
2014-Oct-31 23:30N 49°29' E 000°08'0 0.0
2014-Oct-31 22:33N 49°29' E 000°08'0 0.0
2014-Oct-31 21:30N 49°29' E 000°08'0 0.0
2014-Oct-31 20:33N 49°29' E 000°08'0 0.0
2014-Oct-31 19:30N 49°29' E 000°08'0 0.0
2014-Oct-31 18:33N 49°29' E 000°08'0 0.0
2014-Oct-31 17:30N 49°29' E 000°08'0 0.0
2014-Oct-31 16:30N 49°29' E 000°08'0 0.0
2014-Oct-31 15:30N 49°29' E 000°08'0 0.0
2014-Oct-31 14:30N 49°29' E 000°08'0 0.0
2014-Oct-31 13:33N 49°29' E 000°08'0 0.0
2014-Oct-31 12:30N 49°29' E 000°08'0 0.0
2014-Oct-31 11:33N 49°29' E 000°08'0 0.0
2014-Oct-31 10:30N 49°29' E 000°08'0 0.0
2014-Oct-31 09:33N 49°29' E 000°08'0 0.0
2014-Oct-31 08:33N 49°29' E 000°08'0 0.0
2014-Oct-31 07:30N 49°29' E 000°08'0 0.0
2014-Oct-31 06:30N 49°29' E 000°08'0 0.0
2014-Oct-31 05:33N 49°29' E 000°08'0 0.0
2014-Oct-31 04:33N 49°29' E 000°08'0 0.0
2014-Oct-31 03:30N 49°29' E 000°08'0 0.0
2014-Oct-31 02:33N 49°29' E 000°08'2 1.4
2014-Oct-31 01:25N 49°29' E 000°10'2 2.0
2014-Oct-31 00:10N 49°28' E 000°14'0 0.0
2014-Oct-30 23:28N 49°28' E 000°14'0 0.0
2014-Oct-30 22:16N 49°28' E 000°14'0 0.0
2014-Oct-30 21:04N 49°28' E 000°14'0 0.0
2014-Oct-30 19:28N 49°28' E 000°14'0 0.0
2014-Oct-30 18:22N 49°28' E 000°14'0 0.0
2014-Oct-30 17:22N 49°28' E 000°14'0 0.0
2014-Oct-30 16:28N 49°28' E 000°14'0 0.0
2014-Oct-30 15:28N 49°28' E 000°14'0 0.0
2014-Oct-30 14:22N 49°28' E 000°14'3 3.1
2014-Oct-30 13:33N 49°29' E 000°10'1 0.9
2014-Oct-30 12:33N 49°28' E 000°09'9 8.1
2014-Oct-30 11:26N 49°30' W 000°05'0 0.1
2014-Oct-30 09:32N 49°30' W 000°05'0 0.0
2014-Oct-30 08:32N 49°30' W 000°05'0 0.0
2014-Oct-30 07:26N 49°30' W 000°05'0 0.0
2014-Oct-30 06:26N 49°30' W 000°05'0 0.0
2014-Oct-30 05:32N 49°30' W 000°05'0 0.0
2014-Oct-30 04:14N 49°30' W 000°05'0 0.0
2014-Oct-30 03:32N 49°30' W 000°05'0 0.1
2014-Oct-30 02:32N 49°30' W 000°05'0 0.0
2014-Oct-30 01:32N 49°30' W 000°05'0 0.0
2014-Oct-30 00:32N 49°30' W 000°05'0 0.0
2014-Oct-29 23:32N 49°30' W 000°05'0 0.0
2014-Oct-29 22:08N 49°30' W 000°05'0 0.1
2014-Oct-29 21:32N 49°30' W 000°05'0 0.1
2014-Oct-29 20:33N 49°30' W 000°05'12 9.6
2014-Oct-29 19:20N 49°41' W 000°10'5912.2
2014-Oct-29 14:29N 50°32' E 000°36'1010.9
2014-Oct-29 13:33N 50°39' E 000°47'1712.0
2014-Oct-29 12:10N 50°49' E 001°08'813.2
2014-Oct-29 11:33N 50°55' E 001°17'1515.2
2014-Oct-29 10:33N 51°06' E 001°35'1515.4
2014-Oct-29 09:33N 51°18' E 001°50'1414.3
2014-Oct-29 08:34N 51°29' E 002°03'1312.8
2014-Oct-29 07:33N 51°39' E 002°17'4410.5
2014-Oct-29 03:19N 52°03' E 003°18'1011.7
2014-Oct-29 02:31N 52°03' E 003°33'1212.3
2014-Oct-29 01:33N 52°02' E 003°52'1312.7
2014-Oct-29 00:34N 51°57' E 004°11'7 6.7
2014-Oct-28 23:31N 51°54' E 004°20'0 0.0
2014-Oct-28 22:25N 51°54' E 004°20'0 0.0
2014-Oct-28 21:31N 51°54' E 004°20'0 0.0
2014-Oct-28 20:25N 51°54' E 004°20'0 0.0
2014-Oct-28 19:31N 51°54' E 004°20'0 0.0
2014-Oct-28 18:31N 51°54' E 004°20'0 0.0
2014-Oct-28 17:25N 51°54' E 004°20'0 0.0
2014-Oct-28 16:31N 51°54' E 004°20'0 0.0
2014-Oct-28 15:28N 51°54' E 004°20'0 0.0
2014-Oct-28 14:25N 51°54' E 004°20'0 0.0
2014-Oct-28 13:28N 51°54' E 004°20'0 0.0
2014-Oct-28 12:31N 51°54' E 004°20'0 0.0
2014-Oct-28 11:28N 51°54' E 004°20'0 0.0
2014-Oct-28 10:25N 51°54' E 004°20'0 0.0
2014-Oct-28 09:31N 51°54' E 004°20'0 0.0
2014-Oct-28 08:28N 51°54' E 004°20'0 0.0
2014-Oct-28 07:31N 51°54' E 004°20'0 0.0
2014-Oct-28 06:31N 51°54' E 004°20'0 0.0
2014-Oct-28 05:22N 51°54' E 004°20'1 1.5
2014-Oct-28 04:33N 51°53' E 004°19'1 0.7
2014-Oct-28 03:31N 51°53' E 004°18'0 0.0
2014-Oct-28 02:31N 51°53' E 004°18'0 0.0
2014-Oct-28 01:31N 51°53' E 004°18'0 0.0
2014-Oct-28 00:31N 51°53' E 004°18'0 0.0
2014-Oct-27 23:31N 51°53' E 004°18'0 0.0
2014-Oct-27 22:31N 51°53' E 004°18'0 0.0
2014-Oct-27 21:31N 51°53' E 004°18'0 0.0
2014-Oct-27 20:31N 51°53' E 004°18'0 0.0
2014-Oct-27 19:31N 51°53' E 004°18'0 0.0
2014-Oct-27 18:31N 51°53' E 004°18'0 0.0
2014-Oct-27 17:28N 51°53' E 004°18'0 0.4
2014-Oct-27 16:31N 51°53' E 004°18'0 0.0
2014-Oct-27 15:33N 51°53' E 004°18'0 0.0
2014-Oct-27 14:33N 51°53' E 004°18'0 0.0
2014-Oct-27 13:33N 51°53' E 004°18'0 0.0
2014-Oct-27 12:33N 51°53' E 004°18'0 0.0
2014-Oct-27 11:33N 51°53' E 004°18'0 0.0
2014-Oct-27 10:33N 51°53' E 004°18'0 0.0
2014-Oct-27 09:33N 51°53' E 004°18'0 0.0
2014-Oct-27 08:33N 51°53' E 004°18'0 0.0
2014-Oct-27 07:33N 51°53' E 004°18'0 0.0
2014-Oct-27 06:24N 51°53' E 004°18'0 0.0
2014-Oct-27 05:33N 51°53' E 004°18'0 0.0
2014-Oct-27 04:33N 51°53' E 004°18'0 0.0
2014-Oct-27 03:30N 51°53' E 004°18'0 0.0
2014-Oct-27 02:33N 51°53' E 004°18'0 0.0
2014-Oct-27 01:33N 51°53' E 004°18'0 0.0
2014-Oct-27 00:33N 51°53' E 004°18'0 0.0
2014-Oct-26 23:30N 51°53' E 004°18'0 0.0
2014-Oct-26 22:33N 51°53' E 004°18'0 0.0
2014-Oct-26 21:30N 51°53' E 004°18'0 0.0
2014-Oct-26 20:30N 51°53' E 004°18'0 0.0
2014-Oct-26 19:30N 51°53' E 004°18'0 0.0
2014-Oct-26 18:33N 51°53' E 004°18'0 0.0
2014-Oct-26 17:33N 51°53' E 004°18'8 8.3
2014-Oct-26 16:33N 51°58' E 004°07'1312.9
2014-Oct-26 15:33N 52°03' E 003°48'10 9.4
2014-Oct-26 14:32N 52°13' E 003°46'10 9.4
2014-Oct-26 13:31N 52°22' E 003°49'1512.1
2014-Oct-26 12:17N 52°37' E 003°53'6110.6
2014-Oct-26 06:33N 53°29' E 004°44'9 8.9
2014-Oct-26 05:33N 53°33' E 004°58'10 9.6
2014-Oct-26 04:33N 53°35' E 005°13'1211.9
2014-Oct-26 03:34N 53°39' E 005°32'1313.1
2014-Oct-26 02:33N 53°44' E 005°53'6112.1
2014-Oct-25 21:33N 53°60' E 007°32'1111.4
2014-Oct-25 20:34N 54°01' E 007°52'1211.9
2014-Oct-25 19:33N 54°01' E 008°12'1515.0
2014-Oct-25 18:33N 53°58' E 008°37'1615.5
2014-Oct-25 17:33N 53°52' E 009°01'1313.1
2014-Oct-25 16:33N 53°48' E 009°23'1313.2
2014-Oct-25 15:33N 53°37' E 009°34'1110.8
2014-Oct-25 14:33N 53°33' E 009°51'5 4.8
2014-Oct-25 13:33N 53°32' E 009°59'0 0.0
2014-Oct-25 12:32N 53°32' E 009°59'0 0.0
2014-Oct-25 11:32N 53°32' E 009°59'0 0.0
2014-Oct-25 10:26N 53°32' E 009°59'0 0.0
2014-Oct-25 09:17N 53°32' E 009°59'0 0.0
2014-Oct-25 08:32N 53°32' E 009°59'0 0.0
2014-Oct-25 07:32N 53°32' E 009°59'0 0.0
2014-Oct-25 06:32N 53°32' E 009°59'0 0.0
2014-Oct-25 05:32N 53°32' E 009°59'0 0.0
2014-Oct-25 04:26N 53°32' E 009°59'0 0.0
2014-Oct-25 03:32N 53°32' E 009°59'0 0.0
2014-Oct-25 02:32N 53°32' E 009°59'0 0.0
2014-Oct-25 01:32N 53°32' E 009°59'0 0.0
2014-Oct-25 00:26N 53°32' E 009°59'0 0.0
2014-Oct-24 23:32N 53°32' E 009°59'0 0.0
2014-Oct-24 22:32N 53°32' E 009°59'0 0.0
2014-Oct-24 21:32N 53°32' E 009°59'0 0.0
2014-Oct-24 20:32N 53°32' E 009°59'0 0.0
2014-Oct-24 19:29N 53°32' E 009°59'0 0.0
2014-Oct-24 18:29N 53°32' E 009°59'0 0.0
2014-Oct-24 17:29N 53°32' E 009°59'0 0.0
2014-Oct-24 16:33N 53°32' E 009°59'0 0.0
2014-Oct-24 15:33N 53°32' E 009°59'7 6.8
2014-Oct-24 14:33N 53°33' E 009°47'1312.4
2014-Oct-24 13:33N 53°41' E 009°30'1613.9
2014-Oct-24 12:25N 53°53' E 009°13'1113.3
2014-Oct-24 11:34N 53°50' E 008°54'1212.2
2014-Oct-24 10:33N 53°57' E 008°37'8212.9
2014-Oct-24 04:13N 53°44' E 006°20'811.9
2014-Oct-24 03:33N 53°41' E 006°08'1211.7
2014-Oct-24 02:33N 53°38' E 005°49'1211.6
2014-Oct-24 01:33N 53°35' E 005°30'1111.3
2014-Oct-24 00:33N 53°31' E 005°12'1111.3
2014-Oct-23 23:34N 53°27' E 004°54'5510.9
2014-Oct-23 18:31N 52°41' E 004°04'1211.9
2014-Oct-23 17:31N 52°30' E 003°56'1212.5
2014-Oct-23 16:33N 52°18' E 003°52'1312.8
2014-Oct-23 15:33N 52°06' E 003°55'10 9.7
2014-Oct-23 14:34N 51°59' E 004°06'9 9.4
2014-Oct-23 13:33N 51°54' E 004°19'2 1.6
2014-Oct-23 12:33N 51°53' E 004°21'0 0.0
2014-Oct-23 11:31N 51°53' E 004°21'0 0.0
2014-Oct-23 10:28N 51°53' E 004°21'0 0.0
2014-Oct-23 09:31N 51°53' E 004°21'0 0.0
2014-Oct-23 08:31N 51°53' E 004°21'0 0.0
2014-Oct-23 07:31N 51°53' E 004°21'0 0.0
2014-Oct-23 06:31N 51°53' E 004°21'0 0.0
2014-Oct-23 05:31N 51°53' E 004°21'0 0.0
2014-Oct-23 04:31N 51°53' E 004°21'0 0.0
2014-Oct-23 03:28N 51°53' E 004°21'0 0.0
2014-Oct-23 02:31N 51°53' E 004°21'0 0.0
2014-Oct-23 01:28N 51°53' E 004°21'0 0.0
2014-Oct-23 00:31N 51°53' E 004°21'0 0.0
2014-Oct-22 23:31N 51°53' E 004°21'0 0.0
2014-Oct-22 22:31N 51°53' E 004°21'0 0.0
2014-Oct-22 21:33N 51°53' E 004°21'3 2.6
2014-Oct-22 20:33N 51°53' E 004°17'0 0.0
2014-Oct-22 19:33N 51°53' E 004°17'0 0.0
2014-Oct-22 18:33N 51°53' E 004°17'0 0.0
2014-Oct-22 17:33N 51°53' E 004°17'0 0.0
2014-Oct-22 16:33N 51°53' E 004°17'0 0.0
2014-Oct-22 15:33N 51°53' E 004°17'0 0.0
2014-Oct-22 14:30N 51°53' E 004°17'0 0.0
2014-Oct-22 13:30N 51°53' E 004°17'0 0.0
2014-Oct-22 12:33N 51°53' E 004°17'0 0.0
2014-Oct-22 11:30N 51°53' E 004°17'0 0.0
2014-Oct-22 10:33N 51°53' E 004°17'0 0.0
2014-Oct-22 09:33N 51°53' E 004°17'0 0.0
2014-Oct-22 08:33N 51°53' E 004°17'0 0.0
2014-Oct-22 07:27N 51°53' E 004°17'1 0.6
2014-Oct-22 06:34N 51°53' E 004°17'2 2.1
2014-Oct-22 05:33N 51°54' E 004°20'0 0.0
2014-Oct-22 04:30N 51°54' E 004°20'0 0.0
2014-Oct-22 03:30N 51°54' E 004°20'0 0.0
2014-Oct-22 02:33N 51°54' E 004°20'  
Track history (hours):
 
Tides and Currents Weather Stations Pressure Air Temp Water Temp Dewpoint Dewpoint Depression Visibility Wind Speed Wind Dir Waves Ship Positions

Stolt Dipper

Last reported at 2014-Nov-01 02:33 UTC. Time now 2014-Nov-01 03:18 UTC.
Position N 49°29' E 000°08'.

Length 96 m; draft 6.3 m.

Type: Ship (hazmat cat B). MMSI: 319036000.

Date/timePositionNaut miles runAvg speedWind from/ knotsBaromVisibWave heightAir tempDewpointWater temp
2014-Nov-01 02:33N 49°29' E 000°08'0 0.0
2014-Nov-01 01:30N 49°29' E 000°08'0 0.0
2014-Nov-01 00:33N 49°29' E 000°08'0 0.0
2014-Oct-31 23:30N 49°29' E 000°08'0 0.0
2014-Oct-31 22:33N 49°29' E 000°08'0 0.0
2014-Oct-31 21:30N 49°29' E 000°08'0 0.0
2014-Oct-31 20:33N 49°29' E 000°08'0 0.0
2014-Oct-31 19:30N 49°29' E 000°08'0 0.0
2014-Oct-31 18:33N 49°29' E 000°08'0 0.0
2014-Oct-31 17:30N 49°29' E 000°08'0 0.0
2014-Oct-31 16:30N 49°29' E 000°08'0 0.0
2014-Oct-31 15:30N 49°29' E 000°08'0 0.0
2014-Oct-31 14:30N 49°29' E 000°08'0 0.0
2014-Oct-31 13:33N 49°29' E 000°08'0 0.0
2014-Oct-31 12:30N 49°29' E 000°08'0 0.0
2014-Oct-31 11:33N 49°29' E 000°08'0 0.0
2014-Oct-31 10:30N 49°29' E 000°08'0 0.0
2014-Oct-31 09:33N 49°29' E 000°08'0 0.0
2014-Oct-31 08:33N 49°29' E 000°08'0 0.0
2014-Oct-31 07:30N 49°29' E 000°08'0 0.0
2014-Oct-31 06:30N 49°29' E 000°08'0 0.0
2014-Oct-31 05:33N 49°29' E 000°08'0 0.0
2014-Oct-31 04:33N 49°29' E 000°08'0 0.0
2014-Oct-31 03:30N 49°29' E 000°08'0 0.0
2014-Oct-31 02:33N 49°29' E 000°08'2 1.4
2014-Oct-31 01:25N 49°29' E 000°10'2 2.0
2014-Oct-31 00:10N 49°28' E 000°14'0 0.0
2014-Oct-30 23:28N 49°28' E 000°14'0 0.0
2014-Oct-30 22:16N 49°28' E 000°14'0 0.0
2014-Oct-30 21:04N 49°28' E 000°14'0 0.0
2014-Oct-30 19:28N 49°28' E 000°14'0 0.0
2014-Oct-30 18:22N 49°28' E 000°14'0 0.0
2014-Oct-30 17:22N 49°28' E 000°14'0 0.0
2014-Oct-30 16:28N 49°28' E 000°14'0 0.0
2014-Oct-30 15:28N 49°28' E 000°14'0 0.0
2014-Oct-30 14:22N 49°28' E 000°14'3 3.1
2014-Oct-30 13:33N 49°29' E 000°10'1 0.9
2014-Oct-30 12:33N 49°28' E 000°09'9 8.1
2014-Oct-30 11:26N 49°30' W 000°05'0 0.1
2014-Oct-30 09:32N 49°30' W 000°05'0 0.0
2014-Oct-30 08:32N 49°30' W 000°05'0 0.0
2014-Oct-30 07:26N 49°30' W 000°05'0 0.0
2014-Oct-30 06:26N 49°30' W 000°05'0 0.0
2014-Oct-30 05:32N 49°30' W 000°05'0 0.0
2014-Oct-30 04:14N 49°30' W 000°05'0 0.0
2014-Oct-30 03:32N 49°30' W 000°05'0 0.1
2014-Oct-30 02:32N 49°30' W 000°05'0 0.0
2014-Oct-30 01:32N 49°30' W 000°05'0 0.0
2014-Oct-30 00:32N 49°30' W 000°05'0 0.0
2014-Oct-29 23:32N 49°30' W 000°05'0 0.0
2014-Oct-29 22:08N 49°30' W 000°05'0 0.1
2014-Oct-29 21:32N 49°30' W 000°05'0 0.1
2014-Oct-29 20:33N 49°30' W 000°05'12 9.6
2014-Oct-29 19:20N 49°41' W 000°10'5912.2
2014-Oct-29 14:29N 50°32' E 000°36'1010.9
2014-Oct-29 13:33N 50°39' E 000°47'1712.0
2014-Oct-29 12:10N 50°49' E 001°08'813.2
2014-Oct-29 11:33N 50°55' E 001°17'1515.2
2014-Oct-29 10:33N 51°06' E 001°35'1515.4
2014-Oct-29 09:33N 51°18' E 001°50'1414.3
2014-Oct-29 08:34N 51°29' E 002°03'1312.8
2014-Oct-29 07:33N 51°39' E 002°17'4410.5
2014-Oct-29 03:19N 52°03' E 003°18'1011.7
2014-Oct-29 02:31N 52°03' E 003°33'1212.3
2014-Oct-29 01:33N 52°02' E 003°52'1312.7
2014-Oct-29 00:34N 51°57' E 004°11'7 6.7
2014-Oct-28 23:31N 51°54' E 004°20'0 0.0
2014-Oct-28 22:25N 51°54' E 004°20'0 0.0
2014-Oct-28 21:31N 51°54' E 004°20'0 0.0
2014-Oct-28 20:25N 51°54' E 004°20'0 0.0
2014-Oct-28 19:31N 51°54' E 004°20'0 0.0
2014-Oct-28 18:31N 51°54' E 004°20'0 0.0
2014-Oct-28 17:25N 51°54' E 004°20'0 0.0
2014-Oct-28 16:31N 51°54' E 004°20'0 0.0
2014-Oct-28 15:28N 51°54' E 004°20'0 0.0
2014-Oct-28 14:25N 51°54' E 004°20'0 0.0
2014-Oct-28 13:28N 51°54' E 004°20'0 0.0
2014-Oct-28 12:31N 51°54' E 004°20'0 0.0
2014-Oct-28 11:28N 51°54' E 004°20'0 0.0
2014-Oct-28 10:25N 51°54' E 004°20'0 0.0
2014-Oct-28 09:31N 51°54' E 004°20'0 0.0
2014-Oct-28 08:28N 51°54' E 004°20'0 0.0
2014-Oct-28 07:31N 51°54' E 004°20'0 0.0
2014-Oct-28 06:31N 51°54' E 004°20'0 0.0
2014-Oct-28 05:22N 51°54' E 004°20'1 1.5
2014-Oct-28 04:33N 51°53' E 004°19'1 0.7
2014-Oct-28 03:31N 51°53' E 004°18'0 0.0
2014-Oct-28 02:31N 51°53' E 004°18'0 0.0
2014-Oct-28 01:31N 51°53' E 004°18'0 0.0
2014-Oct-28 00:31N 51°53' E 004°18'0 0.0
2014-Oct-27 23:31N 51°53' E 004°18'0 0.0
2014-Oct-27 22:31N 51°53' E 004°18'0 0.0
2014-Oct-27 21:31N 51°53' E 004°18'0 0.0
2014-Oct-27 20:31N 51°53' E 004°18'0 0.0
2014-Oct-27 19:31N 51°53' E 004°18'0 0.0
2014-Oct-27 18:31N 51°53' E 004°18'0 0.0
2014-Oct-27 17:28N 51°53' E 004°18'0 0.4
2014-Oct-27 16:31N 51°53' E 004°18'0 0.0
2014-Oct-27 15:33N 51°53' E 004°18'0 0.0
2014-Oct-27 14:33N 51°53' E 004°18'0 0.0
2014-Oct-27 13:33N 51°53' E 004°18'0 0.0
2014-Oct-27 12:33N 51°53' E 004°18'0 0.0
2014-Oct-27 11:33N 51°53' E 004°18'0 0.0
2014-Oct-27 10:33N 51°53' E 004°18'0 0.0
2014-Oct-27 09:33N 51°53' E 004°18'0 0.0
2014-Oct-27 08:33N 51°53' E 004°18'0 0.0
2014-Oct-27 07:33N 51°53' E 004°18'0 0.0
2014-Oct-27 06:24N 51°53' E 004°18'0 0.0
2014-Oct-27 05:33N 51°53' E 004°18'0 0.0
2014-Oct-27 04:33N 51°53' E 004°18'0 0.0
2014-Oct-27 03:30N 51°53' E 004°18'0 0.0
2014-Oct-27 02:33N 51°53' E 004°18'0 0.0
2014-Oct-27 01:33N 51°53' E 004°18'0 0.0
2014-Oct-27 00:33N 51°53' E 004°18'0 0.0
2014-Oct-26 23:30N 51°53' E 004°18'0 0.0
2014-Oct-26 22:33N 51°53' E 004°18'0 0.0
2014-Oct-26 21:30N 51°53' E 004°18'0 0.0
2014-Oct-26 20:30N 51°53' E 004°18'0 0.0
2014-Oct-26 19:30N 51°53' E 004°18'0 0.0
2014-Oct-26 18:33N 51°53' E 004°18'0 0.0
2014-Oct-26 17:33N 51°53' E 004°18'8 8.3
2014-Oct-26 16:33N 51°58' E 004°07'1312.9
2014-Oct-26 15:33N 52°03' E 003°48'10 9.4
2014-Oct-26 14:32N 52°13' E 003°46'10 9.4
2014-Oct-26 13:31N 52°22' E 003°49'1512.1
2014-Oct-26 12:17N 52°37' E 003°53'6110.6
2014-Oct-26 06:33N 53°29' E 004°44'9 8.9
2014-Oct-26 05:33N 53°33' E 004°58'10 9.6
2014-Oct-26 04:33N 53°35' E 005°13'1211.9
2014-Oct-26 03:34N 53°39' E 005°32'1313.1
2014-Oct-26 02:33N 53°44' E 005°53'6112.1
2014-Oct-25 21:33N 53°60' E 007°32'1111.4
2014-Oct-25 20:34N 54°01' E 007°52'1211.9
2014-Oct-25 19:33N 54°01' E 008°12'1515.0
2014-Oct-25 18:33N 53°58' E 008°37'1615.5
2014-Oct-25 17:33N 53°52' E 009°01'1313.1
2014-Oct-25 16:33N 53°48' E 009°23'1313.2
2014-Oct-25 15:33N 53°37' E 009°34'1110.8
2014-Oct-25 14:33N 53°33' E 009°51'5 4.8
2014-Oct-25 13:33N 53°32' E 009°59'0 0.0
2014-Oct-25 12:32N 53°32' E 009°59'0 0.0
2014-Oct-25 11:32N 53°32' E 009°59'0 0.0
2014-Oct-25 10:26N 53°32' E 009°59'0 0.0
2014-Oct-25 09:17N 53°32' E 009°59'0 0.0
2014-Oct-25 08:32N 53°32' E 009°59'0 0.0
2014-Oct-25 07:32N 53°32' E 009°59'0 0.0
2014-Oct-25 06:32N 53°32' E 009°59'0 0.0
2014-Oct-25 05:32N 53°32' E 009°59'0 0.0
2014-Oct-25 04:26N 53°32' E 009°59'0 0.0
2014-Oct-25 03:32N 53°32' E 009°59'0 0.0
2014-Oct-25 02:32N 53°32' E 009°59'0 0.0
2014-Oct-25 01:32N 53°32' E 009°59'0 0.0
2014-Oct-25 00:26N 53°32' E 009°59'0 0.0
2014-Oct-24 23:32N 53°32' E 009°59'0 0.0
2014-Oct-24 22:32N 53°32' E 009°59'0 0.0
2014-Oct-24 21:32N 53°32' E 009°59'0 0.0
2014-Oct-24 20:32N 53°32' E 009°59'0 0.0
2014-Oct-24 19:29N 53°32' E 009°59'0 0.0
2014-Oct-24 18:29N 53°32' E 009°59'0 0.0
2014-Oct-24 17:29N 53°32' E 009°59'0 0.0
2014-Oct-24 16:33N 53°32' E 009°59'0 0.0
2014-Oct-24 15:33N 53°32' E 009°59'7 6.8
2014-Oct-24 14:33N 53°33' E 009°47'1312.4
2014-Oct-24 13:33N 53°41' E 009°30'1613.9
2014-Oct-24 12:25N 53°53' E 009°13'1113.3
2014-Oct-24 11:34N 53°50' E 008°54'1212.2
2014-Oct-24 10:33N 53°57' E 008°37'8212.9
2014-Oct-24 04:13N 53°44' E 006°20'811.9
2014-Oct-24 03:33N 53°41' E 006°08'1211.7
2014-Oct-24 02:33N 53°38' E 005°49'1211.6
2014-Oct-24 01:33N 53°35' E 005°30'1111.3
2014-Oct-24 00:33N 53°31' E 005°12'1111.3
2014-Oct-23 23:34N 53°27' E 004°54'5510.9
2014-Oct-23 18:31N 52°41' E 004°04'1211.9
2014-Oct-23 17:31N 52°30' E 003°56'1212.5
2014-Oct-23 16:33N 52°18' E 003°52'1312.8
2014-Oct-23 15:33N 52°06' E 003°55'10 9.7
2014-Oct-23 14:34N 51°59' E 004°06'9 9.4
2014-Oct-23 13:33N 51°54' E 004°19'2 1.6
2014-Oct-23 12:33N 51°53' E 004°21'0 0.0
2014-Oct-23 11:31N 51°53' E 004°21'0 0.0
2014-Oct-23 10:28N 51°53' E 004°21'0 0.0
2014-Oct-23 09:31N 51°53' E 004°21'0 0.0
2014-Oct-23 08:31N 51°53' E 004°21'0 0.0
2014-Oct-23 07:31N 51°53' E 004°21'0 0.0
2014-Oct-23 06:31N 51°53' E 004°21'0 0.0
2014-Oct-23 05:31N 51°53' E 004°21'0 0.0
2014-Oct-23 04:31N 51°53' E 004°21'0 0.0
2014-Oct-23 03:28N 51°53' E 004°21'0 0.0
2014-Oct-23 02:31N 51°53' E 004°21'0 0.0
2014-Oct-23 01:28N 51°53' E 004°21'0 0.0
2014-Oct-23 00:31N 51°53' E 004°21'0 0.0
2014-Oct-22 23:31N 51°53' E 004°21'0 0.0
2014-Oct-22 22:31N 51°53' E 004°21'0 0.0
2014-Oct-22 21:33N 51°53' E 004°21'3 2.6
2014-Oct-22 20:33N 51°53' E 004°17'0 0.0
2014-Oct-22 19:33N 51°53' E 004°17'0 0.0
2014-Oct-22 18:33N 51°53' E 004°17'0 0.0
2014-Oct-22 17:33N 51°53' E 004°17'0 0.0
2014-Oct-22 16:33N 51°53' E 004°17'0 0.0
2014-Oct-22 15:33N 51°53' E 004°17'0 0.0
2014-Oct-22 14:30N 51°53' E 004°17'0 0.0
2014-Oct-22 13:30N 51°53' E 004°17'0 0.0
2014-Oct-22 12:33N 51°53' E 004°17'0 0.0
2014-Oct-22 11:30N 51°53' E 004°17'0 0.0
2014-Oct-22 10:33N 51°53' E 004°17'0 0.0
2014-Oct-22 09:33N 51°53' E 004°17'0 0.0
2014-Oct-22 08:33N 51°53' E 004°17'0 0.0
2014-Oct-22 07:27N 51°53' E 004°17'1 0.6
2014-Oct-22 06:34N 51°53' E 004°17'2 2.1
2014-Oct-22 05:33N 51°54' E 004°20'0 0.0
2014-Oct-22 04:30N 51°54' E 004°20'0 0.0
2014-Oct-22 03:30N 51°54' E 004°20'0 0.0
2014-Oct-22 02:33N 51°54' E 004°20'  

Dump ship's entire track history